Kake, AK (99830)

12:16 AM AKDT on September 22, 2014 (GMT -0800)
Kake | Change Station
CLOSE
Current Station
Airport
Location: Kake,
Elevation: 171 ft
Nearby Weather Stations

Elev 171 ft 56.96 °N, 133.91 °W | Updated 20 minutes ago

Scattered Clouds
Scattered Clouds
52 °F
Feels Like 52 °F
N
7
Wind Variable Wind from SE

Today
High -- | Low -- °F
--% Chance of Precip.
Yesterday
High -- | Low -- °F
Precip. -- in
6:41 AM 6:54 PM
Waning Crescent, 3% visible
Pressure 29.69 in
Visibility 10.0 miles
Clouds Few 7000 ft
Scattered Clouds 12000 ft
Dew Point 48 °F
Humidity 88%
Rainfall 3.30 in
Snow Depth Not available.
UV 0 out of 12
Pollen Not available.
Air Quality Not available.
Flu Activity Not available.
METAR PAFE 220756Z AUTO 13006KT 10SM FEW070 SCT120 11/09 A2969 RMK AO1

More Conditions Fewer Conditions

Pressure 29.69 in
Visibility 10.0 miles
Clouds Few 7000 ft
Scattered Clouds 12000 ft
Dew Point 48 °F
Humidity 88%
Rainfall 3.30 in
Snow Depth Not available.
UV 0 out of 12
Pollen Not available.
Air Quality Not available.
Flu Activity Not available.
METAR PAFE 220756Z AUTO 13006KT 10SM FEW070 SCT120 11/09 A2969 RMK AO1

More Conditions Fewer Conditions

10-Day Weather Forecast

Almanac

Astronomy

Sep. 22, 2014 Rise Set
Actual Time 6:41 AM AKDT 6:54 PM AKDT
Civil Twilight 6:03 AM AKDT 7:32 PM AKDT
Nautical Twilight 5:17 AM AKDT 8:17 PM AKDT
Astronomical Twilight 4:28 AM AKDT 9:06 PM AKDT
Moon 5:05 AM AKDT 6:11 PM AKDT
Length of Visible Light 13h 29m
Length of Day
12h 13m
Tomorrow will be 4m 48s shorter.
Waning Crescent, 3% of the Moon is Illuminated
Today
Waning Crescent
Sep 24
New
Oct 1
First Quarter
Oct 8
Full
Oct 15
Last Quarter

Community

WunderPhotos

Upload Photos

1,755,395 photos uploaded!

Nearby

Snow Depth

Station Depth Elevation
Rocky Point 6 in 500 ft
Mcneil Canyon 1 in 1320 ft
Munson Ridge 1 in 3100 ft
Fort Yukon 0 in 430 ft
Port Graham 0 in 300 ft

Earthquake Activity

City Distance Mag. Time & Date
No recent earthquake activity has been reported nearby.
Minimum magnitude displayed is 2.5.

Coastal Water Temperatures

Place Temperature
No Stations Reporting

Nearby Weather Stations